sensor_id;sensor_type;location;lat;lon;timestamp;temperature;humidity
3940;DHT22;1984;48.312;9.244;2023-09-19T00:01:06;15.20;99.90
3940;DHT22;1984;48.312;9.244;2023-09-19T00:03:35;15.20;99.90
3940;DHT22;1984;48.312;9.244;2023-09-19T00:06:04;15.20;99.90
3940;DHT22;1984;48.312;9.244;2023-09-19T00:08:30;15.20;99.90
3940;DHT22;1984;48.312;9.244;2023-09-19T00:10:56;15.20;99.90
3940;DHT22;1984;48.312;9.244;2023-09-19T00:13:23;15.20;99.90
3940;DHT22;1984;48.312;9.244;2023-09-19T00:15:50;15.20;99.90
3940;DHT22;1984;48.312;9.244;2023-09-19T00:18:16;15.10;99.90
3940;DHT22;1984;48.312;9.244;2023-09-19T00:20:42;15.10;99.90
3940;DHT22;1984;48.312;9.244;2023-09-19T00:23:08;15.10;99.90
3940;DHT22;1984;48.312;9.244;2023-09-19T00:25:37;15.10;99.90
3940;DHT22;1984;48.312;9.244;2023-09-19T00:28:06;15.10;99.90
3940;DHT22;1984;48.312;9.244;2023-09-19T00:30:33;15.10;99.90
3940;DHT22;1984;48.312;9.244;2023-09-19T00:32:59;15.10;99.90
3940;DHT22;1984;48.312;9.244;2023-09-19T00:35:26;15.00;99.90
3940;DHT22;1984;48.312;9.244;2023-09-19T00:37:53;15.00;99.90
3940;DHT22;1984;48.312;9.244;2023-09-19T00:40:18;15.00;99.90
3940;DHT22;1984;48.312;9.244;2023-09-19T00:42:45;15.00;99.90
3940;DHT22;1984;48.312;9.244;2023-09-19T00:45:13;15.00;99.90
3940;DHT22;1984;48.312;9.244;2023-09-19T00:47:40;15.00;99.90
3940;DHT22;1984;48.312;9.244;2023-09-19T00:50:08;14.90;99.90
3940;DHT22;1984;48.312;9.244;2023-09-19T00:52:35;15.00;99.90
3940;DHT22;1984;48.312;9.244;2023-09-19T00:55:05;15.00;99.90
3940;DHT22;1984;48.312;9.244;2023-09-19T00:57:32;15.00;99.90
3940;DHT22;1984;48.312;9.244;2023-09-19T01:00:01;15.00;99.90
3940;DHT22;1984;48.312;9.244;2023-09-19T01:02:31;15.00;99.90
3940;DHT22;1984;48.312;9.244;2023-09-19T01:04:58;15.00;99.90
3940;DHT22;1984;48.312;9.244;2023-09-19T01:07:24;15.00;99.90
3940;DHT22;1984;48.312;9.244;2023-09-19T01:09:50;15.00;99.90
3940;DHT22;1984;48.312;9.244;2023-09-19T01:12:22;15.00;99.90
3940;DHT22;1984;48.312;9.244;2023-09-19T01:14:55;14.90;99.90
3940;DHT22;1984;48.312;9.244;2023-09-19T01:17:51;14.90;99.90
3940;DHT22;1984;48.312;9.244;2023-09-19T01:20:39;14.90;99.90
3940;DHT22;1984;48.312;9.244;2023-09-19T01:26:06;14.90;99.90
3940;DHT22;1984;48.312;9.244;2023-09-19T01:28:44;14.80;99.90
3940;DHT22;1984;48.312;9.244;2023-09-19T01:31:13;14.90;99.90
3940;DHT22;1984;48.312;9.244;2023-09-19T01:33:59;14.90;99.90
3940;DHT22;1984;48.312;9.244;2023-09-19T01:36:30;14.90;99.90
3940;DHT22;1984;48.312;9.244;2023-09-19T01:38:57;14.90;99.90
3940;DHT22;1984;48.312;9.244;2023-09-19T01:41:54;14.90;99.90
3940;DHT22;1984;48.312;9.244;2023-09-19T01:44:50;14.90;99.90
3940;DHT22;1984;48.312;9.244;2023-09-19T01:47:26;14.90;99.90
3940;DHT22;1984;48.312;9.244;2023-09-19T01:52:48;14.90;99.90
3940;DHT22;1984;48.312;9.244;2023-09-19T01:55:15;14.90;99.90
3940;DHT22;1984;48.312;9.244;2023-09-19T01:58:04;14.90;99.90
3940;DHT22;1984;48.312;9.244;2023-09-19T02:00:34;14.90;99.90
3940;DHT22;1984;48.312;9.244;2023-09-19T02:03:02;14.90;99.90
3940;DHT22;1984;48.312;9.244;2023-09-19T02:05:28;14.90;99.90
3940;DHT22;1984;48.312;9.244;2023-09-19T02:07:54;14.90;99.90
3940;DHT22;1984;48.312;9.244;2023-09-19T02:10:21;14.90;99.90
3940;DHT22;1984;48.312;9.244;2023-09-19T02:12:47;14.90;99.90
3940;DHT22;1984;48.312;9.244;2023-09-19T02:15:13;14.90;99.90
3940;DHT22;1984;48.312;9.244;2023-09-19T02:17:41;14.90;99.90
3940;DHT22;1984;48.312;9.244;2023-09-19T02:20:08;14.90;99.90
3940;DHT22;1984;48.312;9.244;2023-09-19T02:22:35;14.90;99.90
3940;DHT22;1984;48.312;9.244;2023-09-19T02:25:01;14.90;99.90
3940;DHT22;1984;48.312;9.244;2023-09-19T02:27:27;14.90;99.90
3940;DHT22;1984;48.312;9.244;2023-09-19T02:29:52;14.90;99.90
3940;DHT22;1984;48.312;9.244;2023-09-19T02:32:18;14.90;99.90
3940;DHT22;1984;48.312;9.244;2023-09-19T02:34:43;14.90;99.90
3940;DHT22;1984;48.312;9.244;2023-09-19T02:37:10;14.90;99.90
3940;DHT22;1984;48.312;9.244;2023-09-19T02:39:35;14.90;99.90
3940;DHT22;1984;48.312;9.244;2023-09-19T02:42:01;14.80;99.90
3940;DHT22;1984;48.312;9.244;2023-09-19T02:44:29;14.80;99.90
3940;DHT22;1984;48.312;9.244;2023-09-19T02:46:54;14.80;99.90
3940;DHT22;1984;48.312;9.244;2023-09-19T02:49:20;14.70;99.90
3940;DHT22;1984;48.312;9.244;2023-09-19T02:51:45;14.70;99.90
3940;DHT22;1984;48.312;9.244;2023-09-19T02:54:12;14.70;99.90
3940;DHT22;1984;48.312;9.244;2023-09-19T02:56:38;14.60;99.90
3940;DHT22;1984;48.312;9.244;2023-09-19T02:59:04;14.60;99.90
3940;DHT22;1984;48.312;9.244;2023-09-19T03:01:30;14.60;99.90
3940;DHT22;1984;48.312;9.244;2023-09-19T03:03:56;14.60;99.90
3940;DHT22;1984;48.312;9.244;2023-09-19T03:06:22;14.60;99.90
3940;DHT22;1984;48.312;9.244;2023-09-19T03:08:49;14.60;99.90
3940;DHT22;1984;48.312;9.244;2023-09-19T03:11:17;14.50;99.90
3940;DHT22;1984;48.312;9.244;2023-09-19T03:13:53;14.50;99.90
3940;DHT22;1984;48.312;9.244;2023-09-19T03:16:19;14.50;99.90
3940;DHT22;1984;48.312;9.244;2023-09-19T03:18:48;14.50;99.90
3940;DHT22;1984;48.312;9.244;2023-09-19T03:21:15;14.60;99.90
3940;DHT22;1984;48.312;9.244;2023-09-19T03:23:40;14.50;99.90
3940;DHT22;1984;48.312;9.244;2023-09-19T03:26:06;14.60;99.90
3940;DHT22;1984;48.312;9.244;2023-09-19T03:28:33;14.60;99.90
3940;DHT22;1984;48.312;9.244;2023-09-19T03:31:04;14.60;99.90
3940;DHT22;1984;48.312;9.244;2023-09-19T03:33:30;14.50;99.90
3940;DHT22;1984;48.312;9.244;2023-09-19T03:35:59;14.50;99.90
3940;DHT22;1984;48.312;9.244;2023-09-19T03:38:26;14.50;99.90
3940;DHT22;1984;48.312;9.244;2023-09-19T03:40:52;14.60;99.90
3940;DHT22;1984;48.312;9.244;2023-09-19T03:43:18;14.50;99.90
3940;DHT22;1984;48.312;9.244;2023-09-19T03:45:44;14.50;99.90
3940;DHT22;1984;48.312;9.244;2023-09-19T03:48:12;14.50;99.90
3940;DHT22;1984;48.312;9.244;2023-09-19T03:50:38;14.50;99.90
3940;DHT22;1984;48.312;9.244;2023-09-19T03:53:04;14.50;99.90
3940;DHT22;1984;48.312;9.244;2023-09-19T03:55:29;14.50;99.90
3940;DHT22;1984;48.312;9.244;2023-09-19T03:57:58;14.50;99.90
3940;DHT22;1984;48.312;9.244;2023-09-19T04:00:23;14.50;99.90
3940;DHT22;1984;48.312;9.244;2023-09-19T04:02:52;14.50;99.90
3940;DHT22;1984;48.312;9.244;2023-09-19T04:05:18;14.50;99.90
3940;DHT22;1984;48.312;9.244;2023-09-19T04:07:44;14.50;99.90
3940;DHT22;1984;48.312;9.244;2023-09-19T04:10:10;14.50;99.90
3940;DHT22;1984;48.312;9.244;2023-09-19T04:12:37;14.50;99.90
3940;DHT22;1984;48.312;9.244;2023-09-19T04:15:04;14.50;99.90
3940;DHT22;1984;48.312;9.244;2023-09-19T04:17:30;14.50;99.90
3940;DHT22;1984;48.312;9.244;2023-09-19T04:19:58;14.50;99.90
3940;DHT22;1984;48.312;9.244;2023-09-19T04:22:24;14.50;99.90
3940;DHT22;1984;48.312;9.244;2023-09-19T04:24:49;14.50;99.90
3940;DHT22;1984;48.312;9.244;2023-09-19T04:27:15;14.50;99.90
3940;DHT22;1984;48.312;9.244;2023-09-19T04:29:41;14.50;99.90
3940;DHT22;1984;48.312;9.244;2023-09-19T04:32:09;14.50;99.90
3940;DHT22;1984;48.312;9.244;2023-09-19T04:34:35;14.50;99.90
3940;DHT22;1984;48.312;9.244;2023-09-19T04:37:01;14.50;99.90
3940;DHT22;1984;48.312;9.244;2023-09-19T04:39:27;14.50;99.90
3940;DHT22;1984;48.312;9.244;2023-09-19T04:41:53;14.50;99.90
3940;DHT22;1984;48.312;9.244;2023-09-19T04:44:18;14.50;99.90
3940;DHT22;1984;48.312;9.244;2023-09-19T04:46:44;14.50;99.90
3940;DHT22;1984;48.312;9.244;2023-09-19T04:49:12;14.50;99.90
3940;DHT22;1984;48.312;9.244;2023-09-19T04:51:40;14.40;99.90
3940;DHT22;1984;48.312;9.244;2023-09-19T04:54:06;14.40;99.90
3940;DHT22;1984;48.312;9.244;2023-09-19T04:56:32;14.30;99.90
3940;DHT22;1984;48.312;9.244;2023-09-19T04:58:58;14.30;99.90
3940;DHT22;1984;48.312;9.244;2023-09-19T05:01:24;14.30;99.90
3940;DHT22;1984;48.312;9.244;2023-09-19T05:03:50;14.30;99.90
3940;DHT22;1984;48.312;9.244;2023-09-19T05:06:19;14.30;99.90
3940;DHT22;1984;48.312;9.244;2023-09-19T05:08:49;14.30;99.90
3940;DHT22;1984;48.312;9.244;2023-09-19T05:11:17;14.30;99.90
3940;DHT22;1984;48.312;9.244;2023-09-19T05:13:43;14.30;99.90
3940;DHT22;1984;48.312;9.244;2023-09-19T05:16:09;14.20;99.90
3940;DHT22;1984;48.312;9.244;2023-09-19T05:18:35;14.20;99.90
3940;DHT22;1984;48.312;9.244;2023-09-19T05:21:02;14.20;99.90
3940;DHT22;1984;48.312;9.244;2023-09-19T05:23:28;14.20;99.90
3940;DHT22;1984;48.312;9.244;2023-09-19T05:25:54;14.20;99.90
3940;DHT22;1984;48.312;9.244;2023-09-19T05:28:20;14.20;99.90
3940;DHT22;1984;48.312;9.244;2023-09-19T05:30:45;14.30;99.90
3940;DHT22;1984;48.312;9.244;2023-09-19T05:33:12;14.30;99.90
3940;DHT22;1984;48.312;9.244;2023-09-19T05:35:38;14.30;99.90
3940;DHT22;1984;48.312;9.244;2023-09-19T05:38:05;14.30;99.90
3940;DHT22;1984;48.312;9.244;2023-09-19T05:40:34;14.30;99.90
3940;DHT22;1984;48.312;9.244;2023-09-19T05:43:00;14.30;99.90
3940;DHT22;1984;48.312;9.244;2023-09-19T05:45:26;14.30;99.90
3940;DHT22;1984;48.312;9.244;2023-09-19T05:47:53;14.40;99.90
3940;DHT22;1984;48.312;9.244;2023-09-19T05:50:26;14.40;99.90
3940;DHT22;1984;48.312;9.244;2023-09-19T05:52:54;14.30;99.90
3940;DHT22;1984;48.312;9.244;2023-09-19T05:55:21;14.30;99.90
3940;DHT22;1984;48.312;9.244;2023-09-19T05:57:54;14.40;99.90
3940;DHT22;1984;48.312;9.244;2023-09-19T06:00:20;14.50;99.90
3940;DHT22;1984;48.312;9.244;2023-09-19T06:02:52;14.70;99.90
3940;DHT22;1984;48.312;9.244;2023-09-19T06:05:18;14.90;99.90
3940;DHT22;1984;48.312;9.244;2023-09-19T06:07:43;15.10;99.90
3940;DHT22;1984;48.312;9.244;2023-09-19T06:10:09;15.30;99.90
3940;DHT22;1984;48.312;9.244;2023-09-19T06:12:39;15.40;99.90
3940;DHT22;1984;48.312;9.244;2023-09-19T06:15:05;15.50;99.90
3940;DHT22;1984;48.312;9.244;2023-09-19T06:17:31;15.50;99.90
3940;DHT22;1984;48.312;9.244;2023-09-19T06:19:57;15.50;99.90
3940;DHT22;1984;48.312;9.244;2023-09-19T06:22:23;15.40;99.90
3940;DHT22;1984;48.312;9.244;2023-09-19T06:24:50;15.50;99.90
3940;DHT22;1984;48.312;9.244;2023-09-19T06:27:15;15.40;99.90
3940;DHT22;1984;48.312;9.244;2023-09-19T06:29:41;15.40;99.90
3940;DHT22;1984;48.312;9.244;2023-09-19T06:32:08;15.40;99.90
3940;DHT22;1984;48.312;9.244;2023-09-19T06:34:37;15.50;99.90
3940;DHT22;1984;48.312;9.244;2023-09-19T06:37:08;15.60;99.90
3940;DHT22;1984;48.312;9.244;2023-09-19T06:39:34;15.80;99.90
3940;DHT22;1984;48.312;9.244;2023-09-19T06:41:59;15.90;99.90
3940;DHT22;1984;48.312;9.244;2023-09-19T06:44:27;16.00;99.90
3940;DHT22;1984;48.312;9.244;2023-09-19T06:46:55;16.00;99.90
3940;DHT22;1984;48.312;9.244;2023-09-19T06:49:20;15.90;99.90
3940;DHT22;1984;48.312;9.244;2023-09-19T06:51:46;15.90;99.90
3940;DHT22;1984;48.312;9.244;2023-09-19T06:54:11;15.90;99.90
3940;DHT22;1984;48.312;9.244;2023-09-19T06:56:37;15.90;99.90
3940;DHT22;1984;48.312;9.244;2023-09-19T06:59:02;15.80;99.90
3940;DHT22;1984;48.312;9.244;2023-09-19T07:01:31;15.60;99.90
3940;DHT22;1984;48.312;9.244;2023-09-19T07:03:57;15.60;99.90
3940;DHT22;1984;48.312;9.244;2023-09-19T07:06:22;15.50;99.90
3940;DHT22;1984;48.312;9.244;2023-09-19T07:08:48;15.60;99.90
3940;DHT22;1984;48.312;9.244;2023-09-19T07:11:16;15.60;99.90
3940;DHT22;1984;48.312;9.244;2023-09-19T07:13:42;15.70;99.90
3940;DHT22;1984;48.312;9.244;2023-09-19T07:16:07;15.90;99.90
3940;DHT22;1984;48.312;9.244;2023-09-19T07:18:35;16.10;99.90
3940;DHT22;1984;48.312;9.244;2023-09-19T07:21:02;16.50;99.90
3940;DHT22;1984;48.312;9.244;2023-09-19T07:23:30;17.00;99.90
3940;DHT22;1984;48.312;9.244;2023-09-19T07:26:01;17.20;99.90
3940;DHT22;1984;48.312;9.244;2023-09-19T07:28:26;17.40;99.90
3940;DHT22;1984;48.312;9.244;2023-09-19T07:30:53;17.50;99.90
3940;DHT22;1984;48.312;9.244;2023-09-19T07:33:19;17.40;99.90
3940;DHT22;1984;48.312;9.244;2023-09-19T07:35:46;17.40;99.90
3940;DHT22;1984;48.312;9.244;2023-09-19T07:38:12;17.40;99.90
3940;DHT22;1984;48.312;9.244;2023-09-19T07:40:37;17.30;99.90
3940;DHT22;1984;48.312;9.244;2023-09-19T07:43:03;17.20;99.90
3940;DHT22;1984;48.312;9.244;2023-09-19T07:45:30;17.00;99.90
3940;DHT22;1984;48.312;9.244;2023-09-19T07:47:56;16.90;99.90
3940;DHT22;1984;48.312;9.244;2023-09-19T07:50:22;16.90;99.90
3940;DHT22;1984;48.312;9.244;2023-09-19T07:52:49;16.80;99.90
3940;DHT22;1984;48.312;9.244;2023-09-19T07:55:16;16.80;99.90
3940;DHT22;1984;48.312;9.244;2023-09-19T07:57:46;16.80;99.90
3940;DHT22;1984;48.312;9.244;2023-09-19T08:00:12;17.20;99.90
3940;DHT22;1984;48.312;9.244;2023-09-19T08:02:39;17.30;99.90
3940;DHT22;1984;48.312;9.244;2023-09-19T08:05:06;17.40;99.90
3940;DHT22;1984;48.312;9.244;2023-09-19T08:07:32;17.30;99.90
3940;DHT22;1984;48.312;9.244;2023-09-19T08:09:58;17.20;99.90
3940;DHT22;1984;48.312;9.244;2023-09-19T08:12:24;17.10;99.90
3940;DHT22;1984;48.312;9.244;2023-09-19T08:14:50;16.90;99.90
3940;DHT22;1984;48.312;9.244;2023-09-19T08:17:16;16.50;99.90
3940;DHT22;1984;48.312;9.244;2023-09-19T08:19:41;16.20;99.90
3940;DHT22;1984;48.312;9.244;2023-09-19T08:22:10;16.00;99.90
3940;DHT22;1984;48.312;9.244;2023-09-19T08:24:35;15.70;99.90
3940;DHT22;1984;48.312;9.244;2023-09-19T08:27:01;15.60;99.90
3940;DHT22;1984;48.312;9.244;2023-09-19T08:29:30;15.60;99.90
3940;DHT22;1984;48.312;9.244;2023-09-19T08:31:59;15.70;99.90
3940;DHT22;1984;48.312;9.244;2023-09-19T08:34:25;15.70;99.90
3940;DHT22;1984;48.312;9.244;2023-09-19T08:36:54;15.80;99.90
3940;DHT22;1984;48.312;9.244;2023-09-19T08:39:26;15.70;99.90
3940;DHT22;1984;48.312;9.244;2023-09-19T08:41:58;15.60;99.90
3940;DHT22;1984;48.312;9.244;2023-09-19T08:44:25;15.60;99.90
3940;DHT22;1984;48.312;9.244;2023-09-19T08:46:54;15.60;99.90
3940;DHT22;1984;48.312;9.244;2023-09-19T08:49:25;15.50;99.90
3940;DHT22;1984;48.312;9.244;2023-09-19T08:52:04;15.50;99.90
3940;DHT22;1984;48.312;9.244;2023-09-19T08:54:37;15.50;99.90
3940;DHT22;1984;48.312;9.244;2023-09-19T08:57:07;15.50;99.90
3940;DHT22;1984;48.312;9.244;2023-09-19T08:59:41;15.80;99.90
3940;DHT22;1984;48.312;9.244;2023-09-19T09:02:11;16.30;99.90
3940;DHT22;1984;48.312;9.244;2023-09-19T09:04:40;17.10;99.90
3940;DHT22;1984;48.312;9.244;2023-09-19T09:07:11;18.00;99.90
3940;DHT22;1984;48.312;9.244;2023-09-19T09:09:37;19.10;99.90
3940;DHT22;1984;48.312;9.244;2023-09-19T09:12:04;20.70;99.90
3940;DHT22;1984;48.312;9.244;2023-09-19T09:14:30;22.40;99.90
3940;DHT22;1984;48.312;9.244;2023-09-19T09:16:56;24.00;99.90
3940;DHT22;1984;48.312;9.244;2023-09-19T09:19:24;25.40;99.90
3940;DHT22;1984;48.312;9.244;2023-09-19T09:21:51;26.40;99.90
3940;DHT22;1984;48.312;9.244;2023-09-19T09:26:54;27.30;99.90
3940;DHT22;1984;48.312;9.244;2023-09-19T09:32:21;28.30;99.90
3940;DHT22;1984;48.312;9.244;2023-09-19T09:37:21;29.10;99.20
3940;DHT22;1984;48.312;9.244;2023-09-19T09:39:59;28.80;97.90
3940;DHT22;1984;48.312;9.244;2023-09-19T09:42:43;28.30;99.30
3940;DHT22;1984;48.312;9.244;2023-09-19T09:45:19;28.70;99.40
3940;DHT22;1984;48.312;9.244;2023-09-19T09:48:02;28.40;98.30
3940;DHT22;1984;48.312;9.244;2023-09-19T09:50:47;28.50;97.90
3940;DHT22;1984;48.312;9.244;2023-09-19T09:53:23;28.80;97.50
3940;DHT22;1984;48.312;9.244;2023-09-19T09:56:08;28.90;97.30
3940;DHT22;1984;48.312;9.244;2023-09-19T09:58:52;29.50;96.20
3940;DHT22;1984;48.312;9.244;2023-09-19T10:01:21;30.00;95.50
3940;DHT22;1984;48.312;9.244;2023-09-19T10:03:57;29.50;95.40
3940;DHT22;1984;48.312;9.244;2023-09-19T10:06:23;29.60;95.20
3940;DHT22;1984;48.312;9.244;2023-09-19T10:11:27;30.40;94.10
3940;DHT22;1984;48.312;9.244;2023-09-19T10:13:56;30.60;94.40
3940;DHT22;1984;48.312;9.244;2023-09-19T10:16:23;30.30;93.80
3940;DHT22;1984;48.312;9.244;2023-09-19T10:18:52;29.90;94.50
3940;DHT22;1984;48.312;9.244;2023-09-19T10:21:20;29.80;93.90
3940;DHT22;1984;48.312;9.244;2023-09-19T10:23:49;29.50;93.20
3940;DHT22;1984;48.312;9.244;2023-09-19T10:26:17;29.60;93.10
3940;DHT22;1984;48.312;9.244;2023-09-19T10:28:43;29.40;93.30
3940;DHT22;1984;48.312;9.244;2023-09-19T10:31:13;29.80;93.70
3940;DHT22;1984;48.312;9.244;2023-09-19T10:33:43;30.20;93.30
3940;DHT22;1984;48.312;9.244;2023-09-19T10:36:09;30.10;92.00
3940;DHT22;1984;48.312;9.244;2023-09-19T10:38:38;29.70;92.70
3940;DHT22;1984;48.312;9.244;2023-09-19T10:41:06;29.50;92.30
3940;DHT22;1984;48.312;9.244;2023-09-19T10:43:33;29.10;92.20
3940;DHT22;1984;48.312;9.244;2023-09-19T10:46:03;28.80;93.50
3940;DHT22;1984;48.312;9.244;2023-09-19T10:48:32;29.10;93.90
3940;DHT22;1984;48.312;9.244;2023-09-19T10:51:11;28.70;93.40
3940;DHT22;1984;48.312;9.244;2023-09-19T10:53:55;28.50;94.10
3940;DHT22;1984;48.312;9.244;2023-09-19T10:56:48;28.30;93.40
3940;DHT22;1984;48.312;9.244;2023-09-19T10:59:17;28.00;93.10
3940;DHT22;1984;48.312;9.244;2023-09-19T11:01:47;27.40;93.70
3940;DHT22;1984;48.312;9.244;2023-09-19T11:04:26;26.90;94.50
3940;DHT22;1984;48.312;9.244;2023-09-19T11:07:09;26.50;95.00
3940;DHT22;1984;48.312;9.244;2023-09-19T11:09:51;26.40;94.60
3940;DHT22;1984;48.312;9.244;2023-09-19T11:14:58;24.50;96.10
3940;DHT22;1984;48.312;9.244;2023-09-19T11:17:34;23.90;96.90
3940;DHT22;1984;48.312;9.244;2023-09-19T11:30:44;21.90;98.90
3940;DHT22;1984;48.312;9.244;2023-09-19T11:36:14;21.20;99.90
3940;DHT22;1984;48.312;9.244;2023-09-19T11:43:50;21.50;98.50
3940;DHT22;1984;48.312;9.244;2023-09-19T11:46:17;21.60;98.90
3940;DHT22;1984;48.312;9.244;2023-09-19T11:48:48;21.50;98.30
3940;DHT22;1984;48.312;9.244;2023-09-19T11:51:16;21.50;99.30
3940;DHT22;1984;48.312;9.244;2023-09-19T11:53:49;21.60;98.50
3940;DHT22;1984;48.312;9.244;2023-09-19T11:56:16;21.70;99.20
3940;DHT22;1984;48.312;9.244;2023-09-19T11:58:44;22.00;99.00
3940;DHT22;1984;48.312;9.244;2023-09-19T12:01:13;22.20;98.50
3940;DHT22;1984;48.312;9.244;2023-09-19T12:03:46;22.20;98.00
3940;DHT22;1984;48.312;9.244;2023-09-19T12:06:15;22.00;97.20
3940;DHT22;1984;48.312;9.244;2023-09-19T12:08:45;21.90;98.60
3940;DHT22;1984;48.312;9.244;2023-09-19T12:11:14;21.80;98.00
3940;DHT22;1984;48.312;9.244;2023-09-19T12:13:42;21.80;98.40
3940;DHT22;1984;48.312;9.244;2023-09-19T12:16:13;21.80;99.30
3940;DHT22;1984;48.312;9.244;2023-09-19T12:18:40;21.80;97.60
3940;DHT22;1984;48.312;9.244;2023-09-19T12:21:21;22.10;98.90
3940;DHT22;1984;48.312;9.244;2023-09-19T12:24:17;22.10;97.40
3940;DHT22;1984;48.312;9.244;2023-09-19T12:26:46;22.10;98.50
3940;DHT22;1984;48.312;9.244;2023-09-19T12:29:20;21.90;97.30
3940;DHT22;1984;48.312;9.244;2023-09-19T12:34:29;21.50;98.00
3940;DHT22;1984;48.312;9.244;2023-09-19T12:37:12;21.30;98.20
3940;DHT22;1984;48.312;9.244;2023-09-19T12:39:42;21.20;97.80
3940;DHT22;1984;48.312;9.244;2023-09-19T12:42:12;21.20;97.50
3940;DHT22;1984;48.312;9.244;2023-09-19T12:44:44;21.10;98.10
3940;DHT22;1984;48.312;9.244;2023-09-19T12:47:12;21.20;98.20
3940;DHT22;1984;48.312;9.244;2023-09-19T12:50:06;21.20;98.70
3940;DHT22;1984;48.312;9.244;2023-09-19T12:52:36;21.10;98.10
3940;DHT22;1984;48.312;9.244;2023-09-19T12:55:02;21.10;98.20
3940;DHT22;1984;48.312;9.244;2023-09-19T12:57:28;21.10;98.80
3940;DHT22;1984;48.312;9.244;2023-09-19T12:59:54;21.20;99.20
3940;DHT22;1984;48.312;9.244;2023-09-19T13:02:20;21.40;98.80
3940;DHT22;1984;48.312;9.244;2023-09-19T13:04:55;21.50;98.70
3940;DHT22;1984;48.312;9.244;2023-09-19T13:07:44;21.60;98.20
3940;DHT22;1984;48.312;9.244;2023-09-19T13:10:13;21.40;97.70
3940;DHT22;1984;48.312;9.244;2023-09-19T13:12:42;21.30;98.40
3940;DHT22;1984;48.312;9.244;2023-09-19T13:15:14;21.30;98.50
3940;DHT22;1984;48.312;9.244;2023-09-19T13:17:45;21.30;97.90
3940;DHT22;1984;48.312;9.244;2023-09-19T13:20:24;21.40;99.10
3940;DHT22;1984;48.312;9.244;2023-09-19T13:22:53;21.50;97.60
3940;DHT22;1984;48.312;9.244;2023-09-19T13:25:20;21.50;98.00
3940;DHT22;1984;48.312;9.244;2023-09-19T13:27:51;21.40;97.90
3940;DHT22;1984;48.312;9.244;2023-09-19T13:30:20;21.50;98.60
3940;DHT22;1984;48.312;9.244;2023-09-19T13:32:46;21.60;98.60
3940;DHT22;1984;48.312;9.244;2023-09-19T13:35:13;21.70;98.80
3940;DHT22;1984;48.312;9.244;2023-09-19T13:37:40;21.90;98.60
3940;DHT22;1984;48.312;9.244;2023-09-19T13:40:14;22.00;98.40
3940;DHT22;1984;48.312;9.244;2023-09-19T13:42:41;22.00;98.20
3940;DHT22;1984;48.312;9.244;2023-09-19T13:45:07;21.90;98.20
3940;DHT22;1984;48.312;9.244;2023-09-19T13:47:34;21.80;98.90
3940;DHT22;1984;48.312;9.244;2023-09-19T13:50:03;21.70;98.70
3940;DHT22;1984;48.312;9.244;2023-09-19T13:52:30;21.70;98.70
3940;DHT22;1984;48.312;9.244;2023-09-19T13:54:56;21.80;98.00
3940;DHT22;1984;48.312;9.244;2023-09-19T13:57:28;21.80;97.80
3940;DHT22;1984;48.312;9.244;2023-09-19T13:59:55;21.90;98.20
3940;DHT22;1984;48.312;9.244;2023-09-19T14:02:23;22.00;98.40
3940;DHT22;1984;48.312;9.244;2023-09-19T14:04:50;22.00;98.10
3940;DHT22;1984;48.312;9.244;2023-09-19T14:07:16;22.10;97.60
3940;DHT22;1984;48.312;9.244;2023-09-19T14:09:44;22.10;98.50
3940;DHT22;1984;48.312;9.244;2023-09-19T14:12:09;22.00;97.70
3940;DHT22;1984;48.312;9.244;2023-09-19T14:14:35;21.80;97.00
3940;DHT22;1984;48.312;9.244;2023-09-19T14:17:03;21.60;98.40
3940;DHT22;1984;48.312;9.244;2023-09-19T14:19:28;21.60;97.80
3940;DHT22;1984;48.312;9.244;2023-09-19T14:21:54;21.70;98.60
3940;DHT22;1984;48.312;9.244;2023-09-19T14:24:21;21.80;98.20
3940;DHT22;1984;48.312;9.244;2023-09-19T14:26:48;21.90;98.80
3940;DHT22;1984;48.312;9.244;2023-09-19T14:29:14;22.10;98.00
3940;DHT22;1984;48.312;9.244;2023-09-19T14:31:40;22.10;96.90
3940;DHT22;1984;48.312;9.244;2023-09-19T14:34:07;22.10;97.10
3940;DHT22;1984;48.312;9.244;2023-09-19T14:36:35;22.10;97.20
3940;DHT22;1984;48.312;9.244;2023-09-19T14:39:01;22.20;97.20
3940;DHT22;1984;48.312;9.244;2023-09-19T14:41:26;22.20;98.00
3940;DHT22;1984;48.312;9.244;2023-09-19T14:43:52;22.20;97.30
3940;DHT22;1984;48.312;9.244;2023-09-19T14:46:18;22.10;97.20
3940;DHT22;1984;48.312;9.244;2023-09-19T14:48:44;22.00;97.80
3940;DHT22;1984;48.312;9.244;2023-09-19T14:51:12;22.00;97.10
3940;DHT22;1984;48.312;9.244;2023-09-19T14:53:39;21.80;97.60
3940;DHT22;1984;48.312;9.244;2023-09-19T14:56:07;21.60;97.10
3940;DHT22;1984;48.312;9.244;2023-09-19T14:58:33;21.60;97.00
3940;DHT22;1984;48.312;9.244;2023-09-19T15:01:10;21.50;97.10
3940;DHT22;1984;48.312;9.244;2023-09-19T15:03:36;21.50;97.10
3940;DHT22;1984;48.312;9.244;2023-09-19T15:06:03;21.50;97.70
3940;DHT22;1984;48.312;9.244;2023-09-19T15:08:33;21.50;98.00
3940;DHT22;1984;48.312;9.244;2023-09-19T15:11:01;21.60;97.80
3940;DHT22;1984;48.312;9.244;2023-09-19T15:13:32;21.60;98.10
3940;DHT22;1984;48.312;9.244;2023-09-19T15:16:00;21.60;97.00
3940;DHT22;1984;48.312;9.244;2023-09-19T15:18:26;21.60;97.80
3940;DHT22;1984;48.312;9.244;2023-09-19T15:20:52;21.60;97.50
3940;DHT22;1984;48.312;9.244;2023-09-19T15:23:18;21.60;97.70
3940;DHT22;1984;48.312;9.244;2023-09-19T15:25:50;21.60;98.40
3940;DHT22;1984;48.312;9.244;2023-09-19T15:28:16;21.60;98.20
3940;DHT22;1984;48.312;9.244;2023-09-19T15:30:41;21.50;98.70
3940;DHT22;1984;48.312;9.244;2023-09-19T15:33:07;21.40;98.20
3940;DHT22;1984;48.312;9.244;2023-09-19T15:35:32;21.30;98.50
3940;DHT22;1984;48.312;9.244;2023-09-19T15:37:58;21.30;99.00
3940;DHT22;1984;48.312;9.244;2023-09-19T15:40:26;21.30;99.00
3940;DHT22;1984;48.312;9.244;2023-09-19T15:42:54;21.30;99.40
3940;DHT22;1984;48.312;9.244;2023-09-19T15:45:19;21.20;98.80
3940;DHT22;1984;48.312;9.244;2023-09-19T15:47:45;21.10;99.10
3940;DHT22;1984;48.312;9.244;2023-09-19T15:50:11;21.10;99.40
3940;DHT22;1984;48.312;9.244;2023-09-19T15:52:39;21.00;99.60
3940;DHT22;1984;48.312;9.244;2023-09-19T15:55:05;21.00;99.50
3940;DHT22;1984;48.312;9.244;2023-09-19T15:57:32;21.00;99.10
3940;DHT22;1984;48.312;9.244;2023-09-19T15:59:58;21.00;99.10
3940;DHT22;1984;48.312;9.244;2023-09-19T16:02:23;20.90;99.10
3940;DHT22;1984;48.312;9.244;2023-09-19T16:04:51;20.90;99.50
3940;DHT22;1984;48.312;9.244;2023-09-19T16:07:17;20.90;99.00
3940;DHT22;1984;48.312;9.244;2023-09-19T16:09:44;20.80;99.30
3940;DHT22;1984;48.312;9.244;2023-09-19T16:12:09;20.80;99.40
3940;DHT22;1984;48.312;9.244;2023-09-19T16:14:36;20.70;99.30
3940;DHT22;1984;48.312;9.244;2023-09-19T16:17:03;20.70;99.50
3940;DHT22;1984;48.312;9.244;2023-09-19T16:19:28;20.70;99.50
3940;DHT22;1984;48.312;9.244;2023-09-19T16:21:54;20.70;99.20
3940;DHT22;1984;48.312;9.244;2023-09-19T16:24:21;20.60;99.60
3940;DHT22;1984;48.312;9.244;2023-09-19T16:26:47;20.50;99.90
3940;DHT22;1984;48.312;9.244;2023-09-19T16:29:14;20.40;99.60
3940;DHT22;1984;48.312;9.244;2023-09-19T16:31:40;20.30;99.90
3940;DHT22;1984;48.312;9.244;2023-09-19T16:34:06;20.10;99.90
3940;DHT22;1984;48.312;9.244;2023-09-19T16:36:32;20.00;99.90
3940;DHT22;1984;48.312;9.244;2023-09-19T16:38:57;19.90;99.90
3940;DHT22;1984;48.312;9.244;2023-09-19T16:41:24;19.80;99.90
3940;DHT22;1984;48.312;9.244;2023-09-19T16:43:50;19.80;99.90
3940;DHT22;1984;48.312;9.244;2023-09-19T16:46:16;19.60;99.90
3940;DHT22;1984;48.312;9.244;2023-09-19T16:48:44;19.60;99.90
3940;DHT22;1984;48.312;9.244;2023-09-19T16:51:13;19.50;99.90